Time,TemperatureF,DewpointF,PressureIn,WindDirection,WindDirectionDegrees,WindSpeedMPH,WindSpeedGustMPH,Humidity,HourlyPrecipIn,Conditions,Clouds,dailyrainin,SoftwareType,DateUTC
2013-09-01 00:01:00,80.2,62.1,27.17,SSE,151,0.0,0.0,54,0.00,,---,0.00,VWS V13.01,2013-09-01 07:01:00,
2013-09-01 00:06:00,80.1,61.9,27.17,SSE,151,0.0,0.0,54,0.00,,---,0.00,VWS V13.01,2013-09-01 07:06:00,
2013-09-01 00:12:00,79.9,62.3,27.17,SSE,151,0.0,0.0,55,0.00,,---,0.00,VWS V13.01,2013-09-01 07:12:00,
2013-09-01 00:17:00,79.7,62.6,27.17,SSE,151,0.0,0.0,56,0.00,,---,0.00,VWS V13.01,2013-09-01 07:17:00,
2013-09-01 00:22:00,79.5,62.5,27.17,SSE,151,0.0,0.0,56,0.00,,---,0.00,VWS V13.01,2013-09-01 07:22:00,
2013-09-01 00:28:00,79.5,62.5,27.17,SSE,151,0.0,0.0,56,0.00,,---,0.00,VWS V13.01,2013-09-01 07:28:00,
2013-09-01 00:33:00,79.3,62.3,27.17,SSE,151,0.0,0.0,56,0.00,,---,0.00,VWS V13.01,2013-09-01 07:33:00,
2013-09-01 00:38:00,79.2,62.6,27.17,SSE,151,0.0,0.0,57,0.00,,---,0.00,VWS V13.01,2013-09-01 07:38:00,
2013-09-01 00:43:00,79.2,62.6,27.17,SSE,151,0.0,0.0,57,0.00,,---,0.00,VWS V13.01,2013-09-01 07:43:00,
2013-09-01 00:49:00,79.0,63.0,27.17,SSE,151,0.0,0.0,58,0.00,,---,0.00,VWS V13.01,2013-09-01 07:49:00,
2013-09-01 00:54:00,78.8,63.3,27.17,SSE,151,0.0,0.0,59,0.00,,---,0.00,VWS V13.01,2013-09-01 07:54:00,
2013-09-01 00:59:00,78.6,63.1,27.17,SSE,151,0.0,0.0,59,0.00,,---,0.00,VWS V13.01,2013-09-01 07:59:00,
2013-09-01 01:04:00,78.4,62.9,27.17,SSE,151,0.0,0.0,59,0.00,,---,0.00,VWS V13.01,2013-09-01 08:04:00,
2013-09-01 01:09:00,78.3,63.2,27.17,SSE,151,0.0,0.0,60,0.00,,---,0.00,VWS V13.01,2013-09-01 08:09:00,
2013-09-01 01:14:00,78.3,63.2,27.17,ESE,102,0.0,0.0,60,0.00,,---,0.00,VWS V13.01,2013-09-01 08:14:00,
2013-09-01 01:19:00,78.3,63.2,27.17,East,98,0.0,0.0,60,0.00,,---,0.00,VWS V13.01,2013-09-01 08:19:00,
2013-09-01 01:25:00,78.3,63.7,27.17,East,98,0.0,0.0,61,0.00,,---,0.00,VWS V13.01,2013-09-01 08:25:00,
2013-09-01 01:30:00,78.1,63.5,27.17,East,98,0.0,0.0,61,0.00,,---,0.00,VWS V13.01,2013-09-01 08:30:00,
2013-09-01 01:35:00,78.1,64.0,27.17,East,98,0.0,0.0,62,0.00,,---,0.00,VWS V13.01,2013-09-01 08:35:00,
2013-09-01 01:40:00,77.9,63.8,27.17,East,99,0.0,0.0,62,0.00,,---,0.00,VWS V13.01,2013-09-01 08:40:00,
2013-09-01 01:46:00,77.9,63.8,27.17,East,99,0.0,0.0,62,0.00,,---,0.00,VWS V13.01,2013-09-01 08:46:00,
2013-09-01 01:51:00,77.9,63.8,27.17,East,101,0.0,0.0,62,0.00,,---,0.00,VWS V13.01,2013-09-01 08:51:00,
2013-09-01 01:56:00,77.9,63.8,27.17,East,98,0.0,0.0,62,0.00,,---,0.00,VWS V13.01,2013-09-01 08:56:00,
2013-09-01 02:01:00,77.9,63.8,27.17,ESE,109,0.0,0.0,62,0.00,,---,0.00,VWS V13.01,2013-09-01 09:01:00,
2013-09-01 02:07:00,77.9,63.8,27.17,East,101,0.0,0.0,62,0.00,,---,0.00,VWS V13.01,2013-09-01 09:07:00,
2013-09-01 02:12:00,77.7,63.7,27.17,East,101,0.0,0.0,62,0.00,,---,0.00,VWS V13.01,2013-09-01 09:12:00,
2013-09-01 02:17:00,77.7,63.7,27.17,East,100,0.0,0.0,62,0.00,,---,0.00,VWS V13.01,2013-09-01 09:17:00,
2013-09-01 02:23:00,77.5,63.0,27.17,East,100,0.0,0.0,61,0.00,,---,0.00,VWS V13.01,2013-09-01 09:23:00,
2013-09-01 02:28:00,77.4,62.9,27.17,East,101,0.0,0.0,61,0.00,,---,0.00,VWS V13.01,2013-09-01 09:28:00,
2013-09-01 02:33:00,77.4,62.9,27.17,East,101,0.0,0.0,61,0.00,,---,0.00,VWS V13.01,2013-09-01 09:33:00,
2013-09-01 02:38:00,77.4,62.9,27.17,ESE,107,0.0,0.0,61,0.00,,---,0.00,VWS V13.01,2013-09-01 09:38:00,
2013-09-01 02:44:00,77.4,62.9,27.17,ESE,107,0.0,0.0,61,0.00,,---,0.00,VWS V13.01,2013-09-01 09:44:00,
2013-09-01 02:49:00,77.2,63.2,27.17,ESE,107,0.0,0.0,62,0.00,,---,0.00,VWS V13.01,2013-09-01 09:49:00,
2013-09-01 02:54:00,77.2,63.2,27.17,ESE,105,0.0,0.0,62,0.00,,---,0.00,VWS V13.01,2013-09-01 09:54:00,
2013-09-01 02:59:00,77.0,63.0,27.17,ESE,105,0.0,0.0,62,0.00,,---,0.00,VWS V13.01,2013-09-01 09:59:00,
2013-09-01 03:05:00,76.8,62.8,27.17,ESE,103,0.0,0.0,62,0.00,,---,0.00,VWS V13.01,2013-09-01 10:05:00,
2013-09-01 03:10:00,76.6,63.1,27.17,ESE,103,0.0,0.0,63,0.00,,---,0.00,VWS V13.01,2013-09-01 10:10:00,
2013-09-01 03:15:00,76.6,63.1,27.17,ESE,103,0.0,0.0,63,0.00,,---,0.00,VWS V13.01,2013-09-01 10:15:00,
2013-09-01 03:21:00,76.5,62.9,27.17,ESE,103,0.0,0.0,63,0.00,,---,0.00,VWS V13.01,2013-09-01 10:21:00,
2013-09-01 03:26:00,76.3,62.8,27.17,ESE,103,0.0,0.0,63,0.00,,---,0.00,VWS V13.01,2013-09-01 10:26:00,
2013-09-01 03:31:00,76.3,63.2,27.17,ESE,102,0.0,0.0,64,0.00,,---,0.00,VWS V13.01,2013-09-01 10:31:00,
2013-09-01 03:36:00,76.3,62.8,27.17,ESE,102,0.0,0.0,63,0.00,,---,0.00,VWS V13.01,2013-09-01 10:36:00,
2013-09-01 03:41:00,76.3,62.8,27.17,ESE,102,0.0,0.0,63,0.00,,---,0.00,VWS V13.01,2013-09-01 10:41:00,
2013-09-01 03:46:00,76.1,63.0,27.17,East,101,0.0,0.0,64,0.00,,---,0.00,VWS V13.01,2013-09-01 10:46:00,
2013-09-01 03:52:00,76.1,63.0,27.14,East,101,0.0,0.0,64,0.00,,---,0.00,VWS V13.01,2013-09-01 10:52:00,
2013-09-01 03:57:00,76.1,63.5,27.14,East,101,0.0,0.0,65,0.00,,---,0.00,VWS V13.01,2013-09-01 10:57:00,
2013-09-01 04:02:00,76.1,63.5,27.14,East,98,0.0,0.0,65,0.00,,---,0.00,VWS V13.01,2013-09-01 11:02:00,
2013-09-01 04:07:00,75.9,63.3,27.14,East,98,0.0,0.0,65,0.00,,---,0.00,VWS V13.01,2013-09-01 11:07:00,
2013-09-01 04:13:00,75.7,63.2,27.14,East,98,0.0,0.0,65,0.00,,---,0.00,VWS V13.01,2013-09-01 11:13:00,
2013-09-01 04:18:00,75.4,63.2,27.14,East,98,0.0,0.0,66,0.00,,---,0.00,VWS V13.01,2013-09-01 11:18:00,
2013-09-01 04:23:00,75.2,63.1,27.17,East,98,0.0,0.0,66,0.00,,---,0.00,VWS V13.01,2013-09-01 11:23:00,
2013-09-01 04:29:00,75.2,63.1,27.17,East,98,0.0,0.0,66,0.00,,---,0.00,VWS V13.01,2013-09-01 11:29:00,
2013-09-01 04:34:00,75.2,63.1,27.17,East,98,0.0,0.0,66,0.00,,---,0.00,VWS V13.01,2013-09-01 11:34:00,
2013-09-01 04:39:00,75.2,62.6,27.17,East,99,0.0,0.0,65,0.00,,---,0.00,VWS V13.01,2013-09-01 11:39:00,
2013-09-01 04:44:00,75.2,63.1,27.17,East,99,0.0,0.0,66,0.00,,---,0.00,VWS V13.01,2013-09-01 11:44:00,
2013-09-01 04:50:00,75.4,63.2,27.17,East,99,0.0,0.0,66,0.00,,---,0.00,VWS V13.01,2013-09-01 11:50:00,
2013-09-01 04:55:00,75.4,63.2,27.17,East,99,0.0,0.0,66,0.00,,---,0.00,VWS V13.01,2013-09-01 11:55:00,
2013-09-01 05:00:00,75.2,63.1,27.17,East,99,0.0,0.0,66,0.00,,---,0.00,VWS V13.01,2013-09-01 12:00:00,
2013-09-01 05:05:00,75.0,63.3,27.17,East,98,4.0,5.4,67,0.00,,---,0.00,VWS V13.01,2013-09-01 12:05:00,
2013-09-01 05:10:00,75.0,63.8,27.17,ESE,113,2.7,5.8,68,0.00,,---,0.00,VWS V13.01,2013-09-01 12:10:00,
2013-09-01 05:15:00,74.8,63.6,27.17,ESE,116,3.6,5.4,68,0.00,,---,0.00,VWS V13.01,2013-09-01 12:15:00,
2013-09-01 05:21:00,74.8,64.0,27.17,ESE,120,3.6,5.8,69,0.00,,---,0.00,VWS V13.01,2013-09-01 12:21:00,
2013-09-01 05:26:00,74.7,63.8,27.17,ESE,105,3.1,3.6,69,0.00,,---,0.00,VWS V13.01,2013-09-01 12:26:00,
2013-09-01 05:31:00,74.7,63.8,27.17,ESE,114,0.0,0.0,69,0.00,,---,0.00,VWS V13.01,2013-09-01 12:31:00,
2013-09-01 05:36:00,74.7,63.8,27.17,ESE,114,0.0,0.0,69,0.00,,---,0.00,VWS V13.01,2013-09-01 12:36:00,
2013-09-01 05:41:00,74.5,63.7,27.17,ESE,111,0.0,0.0,69,0.00,,---,0.00,VWS V13.01,2013-09-01 12:41:00,
2013-09-01 05:47:00,74.3,63.9,27.17,ESE,112,2.2,4.5,70,0.00,,---,0.00,VWS V13.01,2013-09-01 12:47:00,
2013-09-01 05:52:00,74.3,63.9,27.17,ESE,109,0.0,0.0,70,0.00,,---,0.00,VWS V13.01,2013-09-01 12:52:00,
2013-09-01 05:58:00,74.3,63.9,27.17,ESE,107,0.0,0.0,70,0.00,,---,0.00,VWS V13.01,2013-09-01 12:58:00,
2013-09-01 06:03:00,74.3,63.9,27.17,ESE,104,3.6,3.6,70,0.00,,---,0.00,VWS V13.01,2013-09-01 13:03:00,
2013-09-01 06:08:00,74.3,63.9,27.17,East,99,0.0,0.0,70,0.00,,---,0.00,VWS V13.01,2013-09-01 13:08:00,
2013-09-01 06:13:00,74.1,63.7,27.17,East,99,0.0,0.0,70,0.00,,---,0.00,VWS V13.01,2013-09-01 13:13:00,
2013-09-01 06:18:00,74.1,63.7,27.17,East,99,0.0,0.0,70,0.00,,---,0.00,VWS V13.01,2013-09-01 13:18:00,
2013-09-01 06:24:00,74.1,63.7,27.17,East,99,0.0,0.0,70,0.00,,---,0.00,VWS V13.01,2013-09-01 13:24:00,
2013-09-01 06:29:00,74.3,63.9,27.17,East,99,0.0,0.0,70,0.00,,---,0.00,VWS V13.01,2013-09-01 13:29:00,
2013-09-01 06:34:00,74.5,64.5,27.20,East,99,0.0,0.0,71,0.00,,---,0.00,VWS V13.01,2013-09-01 13:34:00,
2013-09-01 06:39:00,74.5,64.1,27.20,East,99,0.0,0.0,70,0.00,,---,0.00,VWS V13.01,2013-09-01 13:39:00,
2013-09-01 06:45:00,74.8,64.8,27.20,East,99,0.0,0.0,71,0.00,,---,0.00,VWS V13.01,2013-09-01 13:45:00,
2013-09-01 06:50:00,75.0,64.6,27.20,East,99,0.0,0.0,70,0.00,,---,0.00,VWS V13.01,2013-09-01 13:50:00,
2013-09-01 06:56:00,75.2,64.3,27.20,East,99,0.0,0.0,69,0.00,,---,0.00,VWS V13.01,2013-09-01 13:56:00,
2013-09-01 07:01:00,75.6,64.7,27.20,East,99,0.0,0.0,69,0.00,,---,0.00,VWS V13.01,2013-09-01 14:01:00,
2013-09-01 07:06:00,75.9,64.6,27.20,East,99,0.0,0.0,68,0.00,,---,0.00,VWS V13.01,2013-09-01 14:06:00,
2013-09-01 07:11:00,76.3,64.9,27.20,East,99,0.0,0.0,68,0.00,,---,0.00,VWS V13.01,2013-09-01 14:11:00,
2013-09-01 07:17:00,76.8,65.0,27.20,East,99,0.0,0.0,67,0.00,,---,0.00,VWS V13.01,2013-09-01 14:17:00,
2013-09-01 07:22:00,77.4,65.1,27.20,East,99,0.0,0.0,66,0.00,,---,0.00,VWS V13.01,2013-09-01 14:22:00,
2013-09-01 07:27:00,77.9,65.2,27.20,East,99,0.0,0.0,65,0.00,,---,0.00,VWS V13.01,2013-09-01 14:27:00,
2013-09-01 07:32:00,78.6,65.0,27.20,East,99,0.0,0.0,63,0.00,,---,0.00,VWS V13.01,2013-09-01 14:32:00,
2013-09-01 07:37:00,78.8,64.2,27.20,East,99,0.0,0.0,61,0.00,,---,0.00,VWS V13.01,2013-09-01 14:37:00,
2013-09-01 07:42:00,79.5,64.9,27.20,East,99,0.0,0.0,61,0.00,,---,0.00,VWS V13.01,2013-09-01 14:42:00,
2013-09-01 07:48:00,79.9,64.8,27.20,East,99,0.0,0.0,60,0.00,,---,0.00,VWS V13.01,2013-09-01 14:48:00,
2013-09-01 07:53:00,80.4,64.8,27.20,East,99,0.0,0.0,59,0.00,,---,0.00,VWS V13.01,2013-09-01 14:53:00,
2013-09-01 07:58:00,81.0,64.3,27.20,East,99,0.0,0.0,57,0.00,,---,0.00,VWS V13.01,2013-09-01 14:58:00,
2013-09-01 08:03:00,81.3,64.1,27.20,East,99,0.0,0.0,56,0.00,,---,0.00,VWS V13.01,2013-09-01 15:03:00,
2013-09-01 08:09:00,81.7,64.0,27.20,East,99,0.0,0.0,55,0.00,,---,0.00,VWS V13.01,2013-09-01 15:09:00,
2013-09-01 08:14:00,81.9,64.1,27.20,East,99,0.0,0.0,55,0.00,,---,0.00,VWS V13.01,2013-09-01 15:14:00,
2013-09-01 08:19:00,82.0,64.3,27.20,East,99,0.0,0.0,55,0.00,,---,0.00,VWS V13.01,2013-09-01 15:19:00,
2013-09-01 08:25:00,82.8,64.4,27.20,East,98,0.0,0.0,54,0.00,,---,0.00,VWS V13.01,2013-09-01 15:25:00,
2013-09-01 08:30:00,83.3,64.4,27.20,East,98,0.0,0.0,53,0.00,,---,0.00,VWS V13.01,2013-09-01 15:30:00,
2013-09-01 08:35:00,84.0,64.0,27.20,East,98,0.0,0.0,51,0.00,,---,0.00,VWS V13.01,2013-09-01 15:35:00,
2013-09-01 08:40:00,84.4,64.3,27.20,East,98,0.0,0.0,51,0.00,,---,0.00,VWS V13.01,2013-09-01 15:40:00,
2013-09-01 08:45:00,84.9,64.2,27.20,NE,38,0.0,0.0,50,0.00,,---,0.00,VWS V13.01,2013-09-01 15:45:00,
2013-09-01 08:50:00,85.1,63.8,27.20,NNE,31,0.0,0.0,49,0.00,,---,0.00,VWS V13.01,2013-09-01 15:50:00,
2013-09-01 08:56:00,85.3,64.0,27.20,North,349,0.0,0.0,49,0.00,,---,0.00,VWS V13.01,2013-09-01 15:56:00,
2013-09-01 09:01:00,85.5,64.1,27.20,NNE,24,0.0,0.0,49,0.00,,---,0.00,VWS V13.01,2013-09-01 16:01:00,
2013-09-01 09:06:00,86.0,64.0,27.20,NE,55,0.0,0.0,48,0.00,,---,0.00,VWS V13.01,2013-09-01 16:06:00,
2013-09-01 09:11:00,86.5,63.9,27.20,NNE,31,0.0,0.0,47,0.00,,---,0.00,VWS V13.01,2013-09-01 16:11:00,
2013-09-01 09:17:00,86.5,63.3,27.20,NNW,342,0.0,0.0,46,0.00,,---,0.00,VWS V13.01,2013-09-01 16:17:00,
2013-09-01 09:22:00,87.1,63.8,27.17,North,350,0.0,0.0,46,0.00,,---,0.00,VWS V13.01,2013-09-01 16:22:00,
2013-09-01 09:27:00,87.4,64.8,27.17,North,351,0.0,0.0,47,0.00,,---,0.00,VWS V13.01,2013-09-01 16:27:00,
2013-09-01 09:32:00,87.4,64.1,27.17,SW,218,0.0,0.0,46,0.00,,---,0.00,VWS V13.01,2013-09-01 16:32:00,
2013-09-01 09:37:00,87.6,64.3,27.17,SW,218,0.0,0.0,46,0.00,,---,0.00,VWS V13.01,2013-09-01 16:37:00,
2013-09-01 09:42:00,88.2,64.2,27.17,South,189,0.0,0.0,45,0.00,,---,0.00,VWS V13.01,2013-09-01 16:42:00,
2013-09-01 09:48:00,88.5,63.8,27.17,ESE,104,0.0,0.0,44,0.00,,---,0.00,VWS V13.01,2013-09-01 16:48:00,
2013-09-01 09:53:00,88.9,64.2,27.17,NW,316,4.0,4.0,44,0.00,,---,0.00,VWS V13.01,2013-09-01 16:53:00,
2013-09-01 09:58:00,88.7,63.3,27.17,WNW,291,3.1,3.1,43,0.00,,---,0.00,VWS V13.01,2013-09-01 16:58:00,
2013-09-01 10:03:00,88.9,64.2,27.17,WNW,297,0.0,0.0,44,0.00,,---,0.00,VWS V13.01,2013-09-01 17:03:00,
2013-09-01 10:08:00,89.2,63.8,27.17,WSW,253,4.9,4.9,43,0.00,,---,0.00,VWS V13.01,2013-09-01 17:08:00,
2013-09-01 10:13:00,89.6,63.5,27.17,WNW,300,0.0,4.9,42,0.00,,---,0.00,VWS V13.01,2013-09-01 17:13:00,
2013-09-01 10:19:00,89.6,63.5,27.17,NW,309,0.0,0.0,42,0.00,,---,0.00,VWS V13.01,2013-09-01 17:19:00,
2013-09-01 10:24:00,90.0,63.1,27.17,WSW,255,0.0,6.3,41,0.00,,---,0.00,VWS V13.01,2013-09-01 17:24:00,
2013-09-01 10:29:00,90.1,63.3,27.17,WSW,254,2.7,5.4,41,0.00,,---,0.00,VWS V13.01,2013-09-01 17:29:00,
2013-09-01 10:34:00,90.5,62.9,27.17,West,266,0.0,6.3,40,0.00,,---,0.00,VWS V13.01,2013-09-01 17:34:00,
2013-09-01 10:39:00,90.9,63.2,27.17,WNW,288,5.8,7.2,40,0.00,,---,0.00,VWS V13.01,2013-09-01 17:39:00,
2013-09-01 10:45:00,90.7,62.3,27.17,WNW,294,2.2,2.7,39,0.00,,---,0.00,VWS V13.01,2013-09-01 17:45:00,
2013-09-01 10:50:00,91.0,62.7,27.17,West,268,3.1,3.6,39,0.00,,---,0.00,VWS V13.01,2013-09-01 17:50:00,
2013-09-01 10:55:00,91.4,63.0,27.17,NW,306,4.9,6.3,39,0.00,,---,0.00,VWS V13.01,2013-09-01 17:55:00,
2013-09-01 11:00:00,91.9,63.5,27.17,WSW,254,4.0,6.3,39,0.00,,---,0.00,VWS V13.01,2013-09-01 18:00:00,
2013-09-01 11:05:00,92.3,63.0,27.17,NW,312,0.0,8.1,38,0.00,,---,0.00,VWS V13.01,2013-09-01 18:05:00,
2013-09-01 11:10:00,92.5,63.2,27.17,WSW,250,3.6,6.3,38,0.00,,---,0.00,VWS V13.01,2013-09-01 18:10:00,
2013-09-01 11:15:00,92.7,63.4,27.17,WNW,300,3.1,3.1,38,0.00,,---,0.00,VWS V13.01,2013-09-01 18:15:00,
2013-09-01 11:20:00,92.8,63.5,27.17,SSW,193,3.6,8.7,38,0.00,,---,0.00,VWS V13.01,2013-09-01 18:20:00,
2013-09-01 11:25:00,93.6,64.2,27.17,South,180,4.0,6.7,38,0.00,,---,0.00,VWS V13.01,2013-09-01 18:25:00,
2013-09-01 11:30:00,94.1,63.9,27.17,SSE,166,4.0,5.8,37,0.00,,---,0.00,VWS V13.01,2013-09-01 18:30:00,
2013-09-01 11:36:00,94.3,64.0,27.17,WNW,301,3.6,4.9,37,0.00,,---,0.00,VWS V13.01,2013-09-01 18:36:00,
2013-09-01 11:41:00,94.8,64.5,27.17,SSW,192,7.6,7.6,37,0.00,,---,0.00,VWS V13.01,2013-09-01 18:41:00,
2013-09-01 11:46:00,95.4,64.2,27.17,WSW,254,5.4,7.6,36,0.00,,---,0.00,VWS V13.01,2013-09-01 18:46:00,
2013-09-01 11:51:00,94.8,62.9,27.17,West,281,0.0,8.7,35,0.00,,---,0.00,VWS V13.01,2013-09-01 18:51:00,
2013-09-01 11:57:00,95.2,63.2,27.17,WNW,300,7.6,7.6,35,0.00,,---,0.00,VWS V13.01,2013-09-01 18:57:00,
2013-09-01 12:02:00,95.0,62.3,27.17,West,276,6.3,6.3,34,0.00,,---,0.00,VWS V13.01,2013-09-01 19:02:00,
2013-09-01 12:08:00,95.0,61.4,27.17,WNW,298,0.0,6.3,33,0.00,,---,0.00,VWS V13.01,2013-09-01 19:08:00,
2013-09-01 12:13:00,95.0,61.4,27.17,West,266,4.0,5.8,33,0.00,,---,0.00,VWS V13.01,2013-09-01 19:13:00,
2013-09-01 12:18:00,95.4,61.7,27.17,SW,228,4.9,6.3,33,0.00,,---,0.00,VWS V13.01,2013-09-01 19:18:00,
2013-09-01 12:23:00,95.5,61.9,27.17,NW,308,0.0,5.4,33,0.00,,---,0.00,VWS V13.01,2013-09-01 19:23:00,
2013-09-01 12:28:00,95.4,60.9,27.17,North,4,0.0,5.4,32,0.00,,---,0.00,VWS V13.01,2013-09-01 19:28:00,
2013-09-01 12:33:00,96.3,62.5,27.17,West,275,7.2,7.2,33,0.00,,---,0.00,VWS V13.01,2013-09-01 19:33:00,
2013-09-01 12:39:00,96.6,63.7,27.14,WNW,283,0.0,6.3,34,0.00,,---,0.00,VWS V13.01,2013-09-01 19:39:00,
2013-09-01 12:44:00,96.4,63.5,27.14,SSW,202,6.3,10.1,34,0.00,,---,0.00,VWS V13.01,2013-09-01 19:44:00,
2013-09-01 12:49:00,97.5,63.6,27.14,South,187,0.0,3.6,33,0.00,,---,0.00,VWS V13.01,2013-09-01 19:49:00,
2013-09-01 12:54:00,97.7,63.8,27.14,South,182,5.8,10.5,33,0.00,,---,0.00,VWS V13.01,2013-09-01 19:54:00,
2013-09-01 12:59:00,97.9,63.0,27.14,West,263,3.6,6.3,32,0.00,,---,0.00,VWS V13.01,2013-09-01 19:59:00,
2013-09-01 13:05:00,97.7,62.9,27.14,WSW,238,6.3,6.3,32,0.00,,---,0.00,VWS V13.01,2013-09-01 20:05:00,
2013-09-01 13:10:00,97.7,62.9,27.14,South,176,7.6,8.1,32,0.00,,---,0.00,VWS V13.01,2013-09-01 20:10:00,
2013-09-01 13:15:00,98.2,63.3,27.14,South,178,4.0,6.3,32,0.00,,---,0.00,VWS V13.01,2013-09-01 20:15:00,
2013-09-01 13:20:00,98.4,63.5,27.14,WNW,298,10.5,10.5,32,0.00,,---,0.00,VWS V13.01,2013-09-01 20:20:00,
2013-09-01 13:26:00,98.1,63.2,27.14,WNW,292,0.0,0.0,32,0.00,,---,0.00,VWS V13.01,2013-09-01 20:26:00,
2013-09-01 13:31:00,98.4,63.5,27.14,West,265,3.1,6.3,32,0.00,,---,0.00,VWS V13.01,2013-09-01 20:31:00,
2013-09-01 13:36:00,98.8,62.9,27.14,NW,308,3.6,5.8,31,0.00,,---,0.00,VWS V13.01,2013-09-01 20:36:00,
2013-09-01 13:42:00,98.1,62.3,27.14,NW,304,4.0,7.2,31,0.00,,---,0.00,VWS V13.01,2013-09-01 20:42:00,
2013-09-01 13:47:00,98.1,62.3,27.14,SW,230,5.4,8.1,31,0.00,,---,0.00,VWS V13.01,2013-09-01 20:47:00,
2013-09-01 13:52:00,98.2,63.3,27.11,SE,128,3.1,3.1,32,0.00,,---,0.00,VWS V13.01,2013-09-01 20:52:00,
2013-09-01 13:57:00,99.0,63.1,27.11,WNW,282,7.6,8.1,31,0.00,,---,0.00,VWS V13.01,2013-09-01 20:57:00,
2013-09-01 14:03:00,99.0,63.1,27.11,West,278,8.1,11.0,31,0.00,,---,0.00,VWS V13.01,2013-09-01 21:03:00,
2013-09-01 14:08:00,98.8,62.0,27.11,West,263,5.4,8.3,30,0.00,,---,0.00,VWS V13.01,2013-09-01 21:08:00,
2013-09-01 14:13:00,98.4,62.6,27.11,NW,304,5.4,8.3,31,0.00,,---,0.00,VWS V13.01,2013-09-01 21:13:00,
2013-09-01 14:18:00,99.0,62.1,27.11,WSW,258,2.7,8.1,30,0.00,,---,0.00,VWS V13.01,2013-09-01 21:18:00,
2013-09-01 14:24:00,99.1,62.3,27.11,NW,308,7.6,8.3,30,0.00,,---,0.00,VWS V13.01,2013-09-01 21:24:00,
2013-09-01 14:29:00,98.4,61.7,27.11,NW,305,0.0,5.4,30,0.00,,---,0.00,VWS V13.01,2013-09-01 21:29:00,
2013-09-01 14:34:00,98.4,61.7,27.11,WSW,244,0.0,4.9,30,0.00,,---,0.00,VWS V13.01,2013-09-01 21:34:00,
2013-09-01 14:39:00,98.8,61.0,27.11,WNW,299,5.4,10.1,29,0.00,,---,0.00,VWS V13.01,2013-09-01 21:39:00,
2013-09-01 14:44:00,99.1,61.3,27.11,WSW,241,6.3,8.7,29,0.00,,---,0.00,VWS V13.01,2013-09-01 21:44:00,
2013-09-01 14:50:00,99.0,61.2,27.11,WNW,291,3.1,7.6,29,0.00,,---,0.00,VWS V13.01,2013-09-01 21:50:00,
2013-09-01 14:55:00,99.0,61.2,27.11,NW,306,5.4,5.8,29,0.00,,---,0.00,VWS V13.01,2013-09-01 21:55:00,
2013-09-01 15:00:00,99.1,61.3,27.11,West,264,5.4,5.8,29,0.00,,---,0.00,VWS V13.01,2013-09-01 22:00:00,
2013-09-01 15:06:00,99.1,61.3,27.08,West,261,6.3,8.7,29,0.00,,---,0.00,VWS V13.01,2013-09-01 22:06:00,
2013-09-01 15:11:00,98.8,61.0,27.08,WSW,248,5.8,8.3,29,0.00,,---,0.00,VWS V13.01,2013-09-01 22:11:00,
2013-09-01 15:16:00,99.0,61.2,27.08,SSW,203,2.7,4.9,29,0.00,,---,0.00,VWS V13.01,2013-09-01 22:16:00,
2013-09-01 15:21:00,99.1,61.3,27.08,SW,228,9.6,9.6,29,0.00,,---,0.00,VWS V13.01,2013-09-01 22:21:00,
2013-09-01 15:26:00,99.0,61.2,27.08,West,275,5.8,5.8,29,0.00,,---,0.00,VWS V13.01,2013-09-01 22:26:00,
2013-09-01 15:31:00,99.3,61.5,27.08,WNW,285,5.4,5.8,29,0.00,,---,0.00,VWS V13.01,2013-09-01 22:31:00,
2013-09-01 15:36:00,99.1,61.3,27.08,West,277,4.9,12.3,29,0.00,,---,0.00,VWS V13.01,2013-09-01 22:36:00,
2013-09-01 15:41:00,98.8,61.0,27.08,WNW,300,2.7,5.4,29,0.00,,---,0.00,VWS V13.01,2013-09-01 22:41:00,
2013-09-01 15:47:00,98.8,61.0,27.08,NW,314,4.9,10.5,29,0.00,,---,0.00,VWS V13.01,2013-09-01 22:47:00,
2013-09-01 15:52:00,99.0,61.2,27.08,WSW,240,5.4,5.8,29,0.00,,---,0.00,VWS V13.01,2013-09-01 22:52:00,
2013-09-01 15:57:00,99.0,61.2,27.08,WNW,295,8.7,9.2,29,0.00,,---,0.00,VWS V13.01,2013-09-01 22:57:00,
2013-09-01 16:02:00,98.6,60.9,27.08,SSW,212,5.4,10.1,29,0.00,,---,0.00,VWS V13.01,2013-09-01 23:02:00,
2013-09-01 16:07:00,98.8,61.0,27.08,WNW,289,0.0,6.3,29,0.00,,---,0.00,VWS V13.01,2013-09-01 23:07:00,
2013-09-01 16:13:00,98.6,60.9,27.08,WNW,284,3.1,6.3,29,0.00,,---,0.00,VWS V13.01,2013-09-01 23:13:00,
2013-09-01 16:18:00,98.4,61.7,27.08,SW,234,3.6,10.1,30,0.00,,---,0.00,VWS V13.01,2013-09-01 23:18:00,
2013-09-01 16:23:00,98.4,60.7,27.08,WSW,241,5.8,7.6,29,0.00,,---,0.00,VWS V13.01,2013-09-01 23:23:00,
2013-09-01 16:28:00,98.2,60.6,27.08,WNW,286,5.4,8.1,29,0.00,,---,0.00,VWS V13.01,2013-09-01 23:28:00,
2013-09-01 16:34:00,98.2,60.6,27.08,West,266,2.7,8.1,29,0.00,,---,0.00,VWS V13.01,2013-09-01 23:34:00,
2013-09-01 16:39:00,98.1,60.4,27.05,WSW,253,5.4,8.7,29,0.00,,---,0.00,VWS V13.01,2013-09-01 23:39:00,
2013-09-01 16:44:00,98.1,60.4,27.05,West,264,5.4,6.3,29,0.00,,---,0.00,VWS V13.01,2013-09-01 23:44:00,
2013-09-01 16:49:00,98.1,60.4,27.08,WNW,291,5.4,12.8,29,0.00,,---,0.00,VWS V13.01,2013-09-01 23:49:00,
2013-09-01 16:54:00,97.9,60.2,27.08,WSW,239,6.3,8.7,29,0.00,,---,0.00,VWS V13.01,2013-09-01 23:54:00,
2013-09-01 16:59:00,97.9,60.2,27.08,West,277,4.0,6.3,29,0.00,,---,0.00,VWS V13.01,2013-09-01 23:59:00,
2013-09-01 17:05:00,97.5,60.0,27.08,South,186,4.9,8.3,29,0.00,,---,0.00,VWS V13.01,2013-09-02 00:05:00,
2013-09-01 17:10:00,97.3,59.8,27.08,WNW,290,4.9,8.1,29,0.00,,---,0.00,VWS V13.01,2013-09-02 00:10:00,
2013-09-01 17:15:00,97.3,59.8,27.08,WNW,293,5.8,8.7,29,0.00,,---,0.00,VWS V13.01,2013-09-02 00:15:00,
2013-09-01 17:20:00,97.2,59.6,27.05,WNW,286,4.0,7.2,29,0.00,,---,0.00,VWS V13.01,2013-09-02 00:20:00,
2013-09-01 17:25:00,97.2,59.6,27.05,NNW,343,7.2,8.7,29,0.00,,---,0.00,VWS V13.01,2013-09-02 00:25:00,
2013-09-01 17:30:00,97.0,59.5,27.05,WNW,287,7.6,8.3,29,0.00,,---,0.00,VWS V13.01,2013-09-02 00:30:00,
2013-09-01 17:36:00,96.8,59.3,27.08,WSW,255,8.7,8.7,29,0.00,,---,0.00,VWS V13.01,2013-09-02 00:36:00,
2013-09-01 17:41:00,96.6,59.2,27.08,NW,305,6.3,10.5,29,0.00,,---,0.00,VWS V13.01,2013-09-02 00:41:00,
2013-09-01 17:46:00,96.3,58.9,27.08,West,272,5.8,7.6,29,0.00,,---,0.00,VWS V13.01,2013-09-02 00:46:00,
2013-09-01 17:51:00,96.1,58.7,27.08,West,279,7.6,8.7,29,0.00,,---,0.00,VWS V13.01,2013-09-02 00:51:00,
2013-09-01 17:56:00,95.7,58.4,27.08,WNW,295,6.3,7.6,29,0.00,,---,0.00,VWS V13.01,2013-09-02 00:56:00,
2013-09-01 18:02:00,95.5,58.2,27.08,WNW,295,5.4,5.4,29,0.00,,---,0.00,VWS V13.01,2013-09-02 01:02:00,
2013-09-01 18:07:00,95.5,58.2,27.08,WNW,299,5.4,7.6,29,0.00,,---,0.00,VWS V13.01,2013-09-02 01:07:00,
2013-09-01 18:12:00,95.2,57.9,27.08,West,268,4.9,8.7,29,0.00,,---,0.00,VWS V13.01,2013-09-02 01:12:00,
2013-09-01 18:17:00,94.8,57.6,27.08,NW,305,3.1,6.3,29,0.00,,---,0.00,VWS V13.01,2013-09-02 01:17:00,
2013-09-01 18:22:00,94.5,57.3,27.08,WNW,299,3.1,11.0,29,0.00,,---,0.00,VWS V13.01,2013-09-02 01:22:00,
2013-09-01 18:27:00,94.3,57.2,27.08,WNW,282,4.0,8.1,29,0.00,,---,0.00,VWS V13.01,2013-09-02 01:27:00,
2013-09-01 18:33:00,94.1,57.0,27.08,NW,304,6.3,6.3,29,0.00,,---,0.00,VWS V13.01,2013-09-02 01:33:00,
2013-09-01 18:38:00,93.7,56.7,27.08,WNW,295,5.4,8.1,29,0.00,,---,0.00,VWS V13.01,2013-09-02 01:38:00,
2013-09-01 18:43:00,93.6,56.6,27.08,WNW,301,8.3,8.3,29,0.00,,---,0.00,VWS V13.01,2013-09-02 01:43:00,
2013-09-01 18:48:00,93.4,56.4,27.08,West,276,3.1,4.9,29,0.00,,---,0.00,VWS V13.01,2013-09-02 01:48:00,
2013-09-01 18:53:00,93.2,56.2,27.08,NW,307,0.0,0.0,29,0.00,,---,0.00,VWS V13.01,2013-09-02 01:53:00,
2013-09-01 18:58:00,93.0,57.0,27.08,West,274,5.4,5.4,30,0.00,,---,0.00,VWS V13.01,2013-09-02 01:58:00,
2013-09-01 19:04:00,92.8,56.9,27.08,NW,306,5.8,7.6,30,0.00,,---,0.00,VWS V13.01,2013-09-02 02:04:00,
2013-09-01 19:09:00,92.7,55.8,27.08,NW,314,5.4,7.6,29,0.00,,---,0.00,VWS V13.01,2013-09-02 02:09:00,
2013-09-01 19:14:00,92.5,55.6,27.08,NW,309,4.0,6.3,29,0.00,,---,0.00,VWS V13.01,2013-09-02 02:14:00,
2013-09-01 19:19:00,92.3,55.5,27.11,NW,310,4.0,5.8,29,0.00,,---,0.00,VWS V13.01,2013-09-02 02:19:00,
2013-09-01 19:24:00,92.1,56.3,27.11,WNW,287,6.3,6.3,30,0.00,,---,0.00,VWS V13.01,2013-09-02 02:24:00,
2013-09-01 19:29:00,91.9,56.1,27.11,WNW,285,5.4,6.3,30,0.00,,---,0.00,VWS V13.01,2013-09-02 02:29:00,
2013-09-01 19:35:00,91.8,56.0,27.11,West,269,5.4,5.4,30,0.00,,---,0.00,VWS V13.01,2013-09-02 02:35:00,
2013-09-01 19:40:00,91.6,55.8,27.11,NW,306,2.7,4.0,30,0.00,,---,0.00,VWS V13.01,2013-09-02 02:40:00,
2013-09-01 19:45:00,91.6,55.8,27.11,WNW,284,0.0,4.0,30,0.00,,---,0.00,VWS V13.01,2013-09-02 02:45:00,
2013-09-01 19:50:00,91.4,55.6,27.11,WNW,292,0.0,0.0,30,0.00,,---,0.00,VWS V13.01,2013-09-02 02:50:00,
2013-09-01 19:56:00,91.2,55.5,27.11,NW,306,3.1,3.1,30,0.00,,---,0.00,VWS V13.01,2013-09-02 02:56:00,
2013-09-01 20:01:00,90.9,55.2,27.11,WNW,287,0.0,0.0,30,0.00,,---,0.00,VWS V13.01,2013-09-02 03:01:00,
2013-09-01 20:07:00,90.7,55.9,27.11,West,278,2.7,4.9,31,0.00,,---,0.00,VWS V13.01,2013-09-02 03:07:00,
2013-09-01 20:12:00,90.5,55.8,27.11,West,277,0.0,4.5,31,0.00,,---,0.00,VWS V13.01,2013-09-02 03:12:00,
2013-09-01 20:17:00,90.3,55.6,27.11,West,270,2.7,2.7,31,0.00,,---,0.00,VWS V13.01,2013-09-02 03:17:00,
2013-09-01 20:22:00,90.1,55.5,27.11,West,276,0.0,0.0,31,0.00,,---,0.00,VWS V13.01,2013-09-02 03:22:00,
2013-09-01 20:28:00,90.0,55.3,27.11,West,278,0.0,0.0,31,0.00,,---,0.00,VWS V13.01,2013-09-02 03:28:00,
2013-09-01 20:33:00,89.8,55.1,27.11,West,277,0.0,0.0,31,0.00,,---,0.00,VWS V13.01,2013-09-02 03:33:00,
2013-09-01 20:39:00,89.6,55.9,27.11,SW,221,2.7,4.9,32,0.00,,---,0.00,VWS V13.01,2013-09-02 03:39:00,
2013-09-01 20:44:00,89.6,55.9,27.11,West,259,3.1,3.1,32,0.00,,---,0.00,VWS V13.01,2013-09-02 03:44:00,
2013-09-01 20:49:00,89.2,56.4,27.11,WSW,258,0.0,0.0,33,0.00,,---,0.00,VWS V13.01,2013-09-02 03:49:00,
2013-09-01 20:54:00,88.9,56.1,27.11,WSW,256,5.4,5.4,33,0.00,,---,0.00,VWS V13.01,2013-09-02 03:54:00,
2013-09-01 21:00:00,88.9,56.1,27.11,West,264,0.0,4.0,33,0.00,,---,0.00,VWS V13.01,2013-09-02 04:00:00,
2013-09-01 21:01:00,88.9,56.1,27.11,West,263,3.1,4.0,33,0.00,,---,0.00,VWS V13.01,2013-09-02 04:01:00,
2013-09-01 21:04:00,88.7,55.9,27.11,West,262,0.0,4.0,33,0.00,,---,0.00,VWS V13.01,2013-09-02 04:04:00,
2013-09-01 21:05:00,88.7,55.9,27.11,WSW,258,0.0,2.7,33,0.00,,---,0.00,VWS V13.01,2013-09-02 04:05:00,
2013-09-01 21:08:00,88.7,55.9,27.11,WSW,258,0.0,3.1,33,0.00,,---,0.00,VWS V13.01,2013-09-02 04:08:00,
2013-09-01 21:13:00,88.7,56.8,27.11,WSW,254,5.4,5.4,34,0.00,,---,0.00,VWS V13.01,2013-09-02 04:13:00,
2013-09-01 21:18:00,88.5,56.6,27.11,WSW,250,0.0,0.0,34,0.00,,---,0.00,VWS V13.01,2013-09-02 04:18:00,
2013-09-01 21:23:00,88.5,56.6,27.14,WSW,245,3.1,4.0,34,0.00,,---,0.00,VWS V13.01,2013-09-02 04:23:00,
2013-09-01 21:29:00,88.3,56.4,27.14,WSW,244,3.1,3.1,34,0.00,,---,0.00,VWS V13.01,2013-09-02 04:29:00,
2013-09-01 21:34:00,88.2,56.3,27.14,SW,233,0.0,4.0,34,0.00,,---,0.00,VWS V13.01,2013-09-02 04:34:00,
2013-09-01 21:39:00,87.8,56.8,27.14,SW,233,0.0,0.0,35,0.00,,---,0.00,VWS V13.01,2013-09-02 04:39:00,
2013-09-01 21:44:00,87.6,56.6,27.14,SW,233,0.0,0.0,35,0.00,,---,0.00,VWS V13.01,2013-09-02 04:44:00,
2013-09-01 21:49:00,87.4,56.5,27.14,SW,233,0.0,0.0,35,0.00,,---,0.00,VWS V13.01,2013-09-02 04:49:00,
2013-09-01 21:51:00,87.4,56.5,27.14,SW,233,0.0,0.0,35,0.00,,---,0.00,VWS V13.01,2013-09-02 04:51:00,
2013-09-01 21:56:00,87.1,56.9,27.14,SW,233,0.0,0.0,36,0.00,,---,0.00,VWS V13.01,2013-09-02 04:56:00,
2013-09-01 22:01:00,87.1,56.9,27.14,SW,233,0.0,0.0,36,0.00,,---,0.00,VWS V13.01,2013-09-02 05:01:00,
2013-09-01 22:07:00,86.9,56.8,27.14,SW,233,0.0,0.0,36,0.00,,---,0.00,VWS V13.01,2013-09-02 05:07:00,
2013-09-01 22:12:00,86.7,57.4,27.14,SW,227,0.0,0.0,37,0.00,,---,0.00,VWS V13.01,2013-09-02 05:12:00,
2013-09-01 22:17:00,86.5,57.9,27.14,SSW,203,0.0,0.0,38,0.00,,---,0.00,VWS V13.01,2013-09-02 05:17:00,
2013-09-01 22:22:00,86.4,57.8,27.14,SSW,209,0.0,0.0,38,0.00,,---,0.00,VWS V13.01,2013-09-02 05:22:00,
2013-09-01 22:28:00,86.2,57.6,27.14,SSW,192,0.0,0.0,38,0.00,,---,0.00,VWS V13.01,2013-09-02 05:28:00,
2013-09-01 22:33:00,86.0,57.5,27.14,SSW,199,0.0,0.0,38,0.00,,---,0.00,VWS V13.01,2013-09-02 05:33:00,
2013-09-01 22:38:00,85.8,58.0,27.14,WSW,244,0.0,0.0,39,0.00,,---,0.00,VWS V13.01,2013-09-02 05:38:00,
2013-09-01 22:43:00,85.6,58.6,27.14,WSW,244,0.0,0.0,40,0.00,,---,0.00,VWS V13.01,2013-09-02 05:43:00,
2013-09-01 22:48:00,85.3,58.2,27.14,WSW,244,0.0,0.0,40,0.00,,---,0.00,VWS V13.01,2013-09-02 05:48:00,
2013-09-01 22:53:00,85.1,58.1,27.14,WSW,244,0.0,0.0,40,0.00,,---,0.00,VWS V13.01,2013-09-02 05:53:00,
2013-09-01 22:59:00,84.7,58.5,27.14,WSW,244,0.0,0.0,41,0.00,,---,0.00,VWS V13.01,2013-09-02 05:59:00,
2013-09-01 23:04:00,84.6,58.3,27.14,WSW,244,0.0,0.0,41,0.00,,---,0.00,VWS V13.01,2013-09-02 06:04:00,
2013-09-01 23:09:00,84.4,58.1,27.14,WSW,244,0.0,0.0,41,0.00,,---,0.00,VWS V13.01,2013-09-02 06:09:00,
2013-09-01 23:14:00,84.0,57.8,27.14,ESE,119,0.0,0.0,41,0.00,,---,0.00,VWS V13.01,2013-09-02 06:14:00,
2013-09-01 23:19:00,83.8,58.3,27.14,ESE,105,0.0,3.6,42,0.00,,---,0.00,VWS V13.01,2013-09-02 06:19:00,
2013-09-01 23:24:00,83.7,58.2,27.14,ESE,105,0.0,0.0,42,0.00,,---,0.00,VWS V13.01,2013-09-02 06:24:00,
2013-09-01 23:30:00,83.3,57.8,27.14,ESE,105,0.0,0.0,42,0.00,,---,0.00,VWS V13.01,2013-09-02 06:30:00,
2013-09-01 23:35:00,83.1,57.7,27.14,ESE,111,0.0,3.6,42,0.00,,---,0.00,VWS V13.01,2013-09-02 06:35:00,
2013-09-01 23:40:00,82.9,58.2,27.14,ESE,117,3.6,3.6,43,0.00,,---,0.00,VWS V13.01,2013-09-02 06:40:00,
2013-09-01 23:45:00,82.9,58.2,27.14,ESE,119,0.0,4.9,43,0.00,,---,0.00,VWS V13.01,2013-09-02 06:45:00,
2013-09-01 23:50:00,82.8,58.0,27.14,ESE,119,0.0,0.0,43,0.00,,---,0.00,VWS V13.01,2013-09-02 06:50:00,
2013-09-01 23:56:00,82.6,57.8,27.14,ESE,117,0.0,4.0,43,0.00,,---,0.00,VWS V13.01,2013-09-02 06:56:00,